Time;durP1;ratioP1;P1;durP2;ratioP2;P2;SDS_P1;SDS_P2;PMS_P1;PMS_P2;Temp;Humidity;BMP_temperature;BMP_pressure;BME280_temperature;BME280_humidity;BME280_pressure;Samples;Min_cycle;Max_cycle;Signal;HPM_P1;HPM_P2
2021/12/08 00:00:57;;;;;;;3.38;2.13;;;5.30;99.90;;;;;;6316146;28;20043;-83
2021/12/08 00:03:58;;;;;;;2.20;1.97;;;5.10;99.90;;;;;;6282936;28;20032;-83
2021/12/08 00:06:59;;;;;;;2.38;2.17;;;;;;;;;;6283503;28;20436;-85
2021/12/08 00:10:05;;;;;;;3.25;2.42;;;;;;;;;;6304563;28;20477;-85
2021/12/08 00:13:07;;;;;;;3.85;2.10;;;5.40;99.90;;;;;;6305382;28;20020;-84
2021/12/08 00:16:11;;;;;;;3.20;2.22;;;5.20;99.90;;;;;;6287749;28;20043;-85
2021/12/08 00:19:12;;;;;;;6.07;2.42;;;5.60;99.90;;;;;;6287253;28;20028;-83
2021/12/08 00:22:13;;;;;;;3.58;2.25;;;;;;;;;;6304339;28;20048;-84
2021/12/08 00:25:14;;;;;;;4.18;2.50;;;;;;;;;;6320708;28;20028;-84
2021/12/08 00:28:15;;;;;;;4.20;2.28;;;;;;;;;;6320998;28;20103;-85
2021/12/08 00:31:16;;;;;;;3.47;2.30;;;5.00;99.90;;;;;;6320096;28;20102;-83
2021/12/08 00:34:17;;;;;;;2.72;2.50;;;;;;;;;;6303918;28;20036;-83
2021/12/08 00:37:17;;;;;;;2.60;2.40;;;5.00;99.90;;;;;;6320721;28;20074;-85
2021/12/08 00:40:18;;;;;;;3.00;2.58;;;6.30;99.90;;;;;;6287054;28;20036;-83
2021/12/08 00:43:19;;;;;;;4.57;2.85;;;4.90;99.90;;;;;;6303599;28;20043;-85
2021/12/08 00:46:20;;;;;;;4.25;2.60;;;4.80;99.90;;;;;;6287082;28;20466;-85
2021/12/08 00:49:21;;;;;;;3.90;2.70;;;;;;;;;;6286563;28;20039;-84
2021/12/08 00:52:27;;;;;;;3.03;2.60;;;;;;;;;;6319905;28;20040;-83
2021/12/08 00:55:27;;;;;;;3.42;2.80;;;4.80;99.90;;;;;;6320531;28;20501;-83
2021/12/08 00:58:28;;;;;;;3.10;2.30;;;;;;;;;;6303088;28;20111;-83
2021/12/08 01:01:29;;;;;;;3.67;2.58;;;;;;;;;;6303304;28;20030;-83
2021/12/08 01:04:31;;;;;;;2.80;2.35;;;5.10;99.90;;;;;;6302883;28;20021;-83
2021/12/08 01:07:32;;;;;;;3.40;2.20;;;;;;;;;;6286062;28;20368;-85
2021/12/08 01:10:33;;;;;;;4.18;2.67;;;;;;;;;;6320054;28;20113;-84
2021/12/08 01:13:34;;;;;;;2.85;2.22;;;;;;;;;;6319997;28;20081;-83
2021/12/08 01:16:34;;;;;;;3.97;2.80;;;5.40;99.90;;;;;;6302964;28;20028;-83
2021/12/08 01:19:35;;;;;;;3.08;2.58;;;;;;;;;;6318803;28;20077;-83
2021/12/08 01:22:37;;;;;;;3.30;2.50;;;;;;;;;;6319544;28;20055;-83
2021/12/08 01:25:38;;;;;;;3.13;2.20;;;;;;;;;;6319212;28;20123;-82
2021/12/08 01:28:39;;;;;;;2.42;2.03;;;;;;;;;;6319326;28;20050;-85
2021/12/08 01:31:42;;;;;;;3.10;2.20;;;5.40;99.90;;;;;;6319219;28;20409;-82
2021/12/08 01:34:42;;;;;;;2.83;2.42;;;5.50;99.90;;;;;;6302439;28;20107;-85
2021/12/08 01:37:43;;;;;;;4.03;2.13;;;;;;;;;;6302548;28;20043;-84
2021/12/08 01:40:44;;;;;;;2.88;2.05;;;5.20;99.90;;;;;;6318886;28;20024;-82
2021/12/08 01:47:04;;;;;;;3.38;2.00;;;5.30;99.90;;;;;;6318954;28;20394;-83
2021/12/08 01:50:05;;;;;;;1.80;1.70;;;5.20;99.90;;;;;;6302133;28;20533;-83
2021/12/08 01:53:07;;;;;;;2.03;1.83;;;5.30;99.90;;;;;;6301908;28;20028;-86
2021/12/08 01:56:08;;;;;;;2.78;2.50;;;5.30;99.90;;;;;;6302571;28;20036;-83
2021/12/08 01:59:09;;;;;;;2.75;2.17;;;5.60;99.90;;;;;;6301916;28;20081;-83
2021/12/08 02:02:09;;;;;;;3.45;2.05;;;5.20;99.90;;;;;;6302008;28;20027;-82
2021/12/08 02:05:10;;;;;;;2.33;2.00;;;;;;;;;;6284985;28;20082;-82
2021/12/08 02:08:11;;;;;;;2.17;1.90;;;5.40;99.90;;;;;;6318693;28;20051;-84
2021/12/08 02:11:12;;;;;;;2.45;2.17;;;;;;;;;;6284775;28;20032;-83
2021/12/08 02:14:14;;;;;;;2.38;2.05;;;5.40;99.90;;;;;;6301151;28;20035;-83
2021/12/08 02:17:15;;;;;;;4.27;2.23;;;;;;;;;;6301753;28;20035;-85
2021/12/08 02:20:16;;;;;;;1.85;1.75;;;;;;;;;;6301060;28;20423;-82
2021/12/08 02:23:17;;;;;;;2.42;2.17;;;5.20;99.90;;;;;;6318076;28;20501;-84
2021/12/08 02:26:18;;;;;;;2.22;2.03;;;5.20;99.90;;;;;;6301350;28;20454;-83
2021/12/08 02:29:33;;;;;;;2.90;1.90;;;5.30;99.90;;;;;;6301236;28;20052;-84
2021/12/08 02:49:03;;;;;;;1.85;1.75;;;5.30;99.90;;;;;;6303229;28;20032;-85
2021/12/08 02:52:08;;;;;;;3.25;2.70;;;5.20;99.90;;;;;;6284028;28;20149;-83
2021/12/08 02:55:09;;;;;;;5.55;4.40;;;;;;;;;;6301021;28;20564;-83
2021/12/08 02:58:10;;;;;;;4.68;3.90;;;5.10;99.90;;;;;;6317298;28;20382;-83
2021/12/08 03:01:12;;;;;;;4.10;3.40;;;;;;;;;;6300511;28;20032;-82
2021/12/08 03:04:13;;;;;;;3.23;2.80;;;;;;;;;;6317145;28;20020;-82
2021/12/08 03:07:14;;;;;;;3.95;2.92;;;;;;;;;;6300486;28;20024;-82
2021/12/08 03:10:17;;;;;;;3.17;2.88;;;5.10;99.90;;;;;;6299809;28;20497;-82
2021/12/08 03:13:18;;;;;;;3.35;3.00;;;;;;;;;;6300408;28;20499;-82
2021/12/08 03:16:19;;;;;;;4.65;3.75;;;;;;;;;;6299863;28;20055;-81
2021/12/08 03:19:22;;;;;;;3.30;3.00;;;;;;;;;;6317134;28;20035;-83
2021/12/08 03:22:23;;;;;;;4.97;2.80;;;;;;;;;;6300166;28;20032;-84
2021/12/08 03:25:24;;;;;;;5.22;2.90;;;5.20;99.90;;;;;;6300240;28;20523;-83
2021/12/08 03:28:30;;;;;;;5.03;3.55;;;;;;;;;;6283460;28;20028;-84
2021/12/08 03:31:38;;;;;;;4.65;3.45;;;5.10;99.90;;;;;;6316616;28;20044;-83
2021/12/08 03:34:42;;;;;;;4.38;3.53;;;4.80;99.90;;;;;;6284848;28;20564;-82
2021/12/08 03:37:44;;;;;;;4.35;3.40;;;4.90;99.90;;;;;;6299990;28;20059;-82
2021/12/08 03:40:46;;;;;;;3.38;2.60;;;;;;;;;;6283171;28;20154;-83
2021/12/08 03:43:47;;;;;;;3.25;2.65;;;5.00;99.90;;;;;;6299494;28;20023;-83
2021/12/08 03:46:48;;;;;;;5.10;2.70;;;;;;;;;;6299965;28;20028;-84
2021/12/08 03:49:49;;;;;;;2.42;2.05;;;;;;;;;;6316511;28;20044;-82
2021/12/08 03:52:50;;;;;;;2.15;1.95;;;;;;;;;;6316511;28;20032;-83
2021/12/08 03:55:52;;;;;;;1.95;1.52;;;4.90;99.90;;;;;;6299346;28;20028;-83
2021/12/08 03:58:53;;;;;;;11.87;8.27;;;;;;;;;;6299692;28;20081;-84
2021/12/08 04:01:54;;;;;;;4.20;3.05;;;;;;;;;;6299373;28;20674;-82
2021/12/08 04:04:55;;;;;;;3.15;2.35;;;;;;;;;;6316457;28;20028;-83
2021/12/08 04:08:02;;;;;;;3.20;2.50;;;;;;;;;;6316123;28;20020;-82
2021/12/08 04:11:04;;;;;;;2.03;1.83;;;;;;;;;;6316329;28;20062;-83
2021/12/08 04:14:06;;;;;;;1.40;1.30;;;;;;;;;;6316188;28;20021;-83
2021/12/08 04:17:18;;;;;;;1.02;1.02;;;5.70;99.90;;;;;;6299212;28;20031;-83
2021/12/08 04:20:28;;;;;;;1.30;1.10;;;5.70;99.90;;;;;;6300295;28;20089;-82
2021/12/08 04:23:32;;;;;;;0.75;0.47;;;5.60;99.90;;;;;;6300075;28;20028;-82
2021/12/08 04:26:44;;;;;;;0.50;0.40;;;7.10;99.90;;;;;;6283698;28;20024;-82
2021/12/08 04:29:45;;;;;;;1.50;1.40;;;5.90;99.90;;;;;;6283358;28;20052;-83
2021/12/08 04:32:46;;;;;;;1.13;1.00;;;6.50;99.90;;;;;;6282581;28;20048;-82
2021/12/08 04:35:48;;;;;;;0.90;0.90;;;7.40;99.90;;;;;;6282480;28;20351;-83
2021/12/08 04:38:53;;;;;;;1.03;0.87;;;6.20;99.90;;;;;;6282302;28;20124;-83
2021/12/08 04:42:00;;;;;;;0.70;0.70;;;6.50;99.90;;;;;;6299556;28;20262;-83
2021/12/08 04:45:09;;;;;;;1.23;1.13;;;5.70;99.90;;;;;;6284333;28;20028;-83
2021/12/08 05:05:25;;;;;;;0.80;0.80;;;6.20;99.90;;;;;;6290082;28;20047;-82
2021/12/08 05:08:40;;;;;;;0.93;0.73;;;5.80;99.90;;;;;;6290793;28;20382;-84
2021/12/08 05:11:47;;;;;;;0.70;0.70;;;5.60;99.90;;;;;;6290128;28;20045;-82
2021/12/08 05:14:51;;;;;;;1.63;1.40;;;5.60;99.90;;;;;;6286831;28;20040;-83
2021/12/08 05:18:09;;;;;;;1.27;0.90;;;6.10;99.90;;;;;;6286677;28;20032;-82
2021/12/08 05:21:27;;;;;;;3.42;2.10;;;5.60;99.90;;;;;;6304029;28;20028;-83
2021/12/08 05:24:35;;;;;;;1.60;1.50;;;5.50;99.90;;;;;;6319898;28;20028;-82
2021/12/08 05:27:43;;;;;;;1.60;1.50;;;6.10;99.90;;;;;;6286063;28;20031;-84
2021/12/08 05:30:56;;;;;;;3.10;2.80;;;5.50;99.90;;;;;;6302518;28;20048;-84
2021/12/08 05:33:57;;;;;;;4.07;2.67;;;5.70;99.90;;;;;;6284961;28;20056;-85
2021/12/08 05:36:58;;;;;;;2.65;1.98;;;5.30;99.90;;;;;;6285773;28;20070;-85
2021/12/08 05:39:58;;;;;;;2.72;2.28;;;5.60;99.90;;;;;;6301695;28;20020;-85
2021/12/08 05:42:59;;;;;;;3.20;2.58;;;5.60;99.90;;;;;;6284813;28;20470;-84
2021/12/08 05:46:00;;;;;;;1.38;1.27;;;7.00;99.90;;;;;;6284716;28;20039;-84
2021/12/08 05:49:01;;;;;;;1.10;1.00;;;5.30;99.90;;;;;;6285613;28;20055;-87
2021/12/08 05:52:02;;;;;;;1.48;1.38;;;5.30;99.90;;;;;;6286147;28;20482;-85
2021/12/08 05:55:03;;;;;;;1.65;1.55;;;5.60;99.90;;;;;;6285416;28;20028;-86
2021/12/08 05:58:05;;;;;;;2.40;2.20;;;5.20;99.90;;;;;;6285534;28;20158;-86
2021/12/08 06:01:12;;;;;;;3.60;3.05;;;5.20;99.90;;;;;;6318708;28;20361;-85
2021/12/08 06:04:13;;;;;;;3.50;2.53;;;;;;;;;;6318626;28;20465;-83
2021/12/08 06:07:14;;;;;;;1.77;1.67;;;;;;;;;;6300902;28;20047;-86
2021/12/08 06:10:19;;;;;;;11.18;7.82;;;5.20;99.90;;;;;;6318497;28;20401;-85
2021/12/08 06:13:20;;;;;;;8.45;5.53;;;;;;;;;;6285268;28;20023;-86
2021/12/08 06:16:21;;;;;;;18.33;13.02;;;5.10;99.90;;;;;;6318198;28;20031;-83
2021/12/08 06:19:22;;;;;;;4.50;4.10;;;4.90;99.90;;;;;;6284850;28;20028;-84
2021/12/08 06:22:23;;;;;;;5.05;4.25;;;5.10;99.90;;;;;;6301053;28;20032;-83
2021/12/08 06:25:24;;;;;;;8.27;6.38;;;4.80;99.90;;;;;;6301738;28;20162;-85
2021/12/08 06:28:25;;;;;;;6.35;5.65;;;;;;;;;;6283900;28;20040;-84
2021/12/08 06:31:27;;;;;;;6.30;4.90;;;4.90;99.90;;;;;;6300844;28;20505;-88
2021/12/08 06:34:28;;;;;;;4.75;4.25;;;5.00;99.90;;;;;;6300972;28;20119;-84
2021/12/08 06:37:31;;;;;;;5.13;3.85;;;5.00;99.90;;;;;;6301197;28;20474;-84
2021/12/08 06:40:37;;;;;;;7.18;4.45;;;5.00;99.90;;;;;;6273545;28;20063;-82
2021/12/08 06:43:41;;;;;;;4.47;3.60;;;5.00;99.90;;;;;;6284099;28;20394;-84
2021/12/08 06:46:42;;;;;;;6.35;3.47;;;5.20;99.90;;;;;;6283731;28;20030;-85
2021/12/08 06:49:45;;;;;;;5.07;3.03;;;4.80;99.90;;;;;;6300606;28;20028;-84
2021/12/08 06:52:46;;;;;;;6.25;3.75;;;5.00;99.90;;;;;;6300450;28;20458;-84
2021/12/08 06:55:49;;;;;;;4.10;3.17;;;5.00;99.90;;;;;;6283442;28;20073;-85
2021/12/08 06:58:51;;;;;;;4.28;3.08;;;5.40;99.90;;;;;;6283985;28;20089;-83
2021/12/08 07:05:23;;;;;;;4.15;3.25;;;4.80;99.90;;;;;;6301491;28;20063;-83
2021/12/08 07:08:24;;;;;;;5.00;3.60;;;4.60;99.90;;;;;;6304153;28;20024;-80
2021/12/08 07:11:27;;;;;;;5.10;4.60;;;4.70;99.90;;;;;;6316456;28;20032;-81
2021/12/08 07:14:28;;;;;;;4.25;3.53;;;4.70;99.90;;;;;;6284036;28;20028;-81
2021/12/08 07:17:32;;;;;;;7.30;5.03;;;4.50;99.90;;;;;;6299644;28;20032;-82
2021/12/08 07:20:43;;;;;;;14.90;10.45;;;4.60;99.90;;;;;;6299734;28;20024;-81
2021/12/08 07:23:47;;;;;;;10.65;7.72;;;4.70;99.90;;;;;;6301290;28;20028;-80
2021/12/08 07:26:52;;;;;;;6.47;5.30;;;4.60;99.90;;;;;;6283021;28;20394;-83
2021/12/08 07:29:53;;;;;;;6.07;5.10;;;4.60;99.90;;;;;;6299999;28;20048;-83
2021/12/08 07:32:54;;;;;;;4.93;2.90;;;4.60;99.90;;;;;;6282595;28;20043;-81
2021/12/08 07:35:57;;;;;;;4.05;3.65;;;4.80;99.90;;;;;;6299840;28;20024;-82
2021/12/08 07:38:59;;;;;;;;;;;5.10;99.90;;;;;;6300318;28;20032;-82
2021/12/08 07:42:08;;;;;;;4.57;3.70;;;4.60;99.90;;;;;;6316111;28;19908;-82
2021/12/08 07:45:12;;;;;;;6.18;4.00;;;4.40;99.90;;;;;;6316517;28;20424;-84
2021/12/08 07:48:16;;;;;;;4.45;3.58;;;4.30;99.90;;;;;;6283386;28;20028;-82
2021/12/08 07:51:32;;;;;;;4.63;4.03;;;4.60;99.90;;;;;;6298950;28;20040;-83
2021/12/08 07:54:32;;;;;;;4.35;3.67;;;4.40;99.90;;;;;;6316575;28;20060;-80
2021/12/08 07:57:34;;;;;;;6.07;4.35;;;4.80;99.90;;;;;;6299490;28;20477;-82
2021/12/08 08:00:47;;;;;;;5.47;4.28;;;4.70;99.90;;;;;;6300001;28;20470;-81
2021/12/08 08:03:47;;;;;;;4.85;4.35;;;5.00;99.90;;;;;;6316980;28;20444;-83
2021/12/08 08:06:51;;;;;;;6.65;5.68;;;4.60;99.90;;;;;;6299895;28;20111;-81
2021/12/08 08:09:59;;;;;;;7.15;5.88;;;4.50;99.90;;;;;;6284044;28;20027;-82
2021/12/08 08:13:02;;;;;;;5.35;4.47;;;4.60;99.90;;;;;;6300545;28;20440;-80
2021/12/08 08:16:27;;;;;;;8.45;6.20;;;4.80;99.90;;;;;;6316495;28;20478;-83
2021/12/08 08:19:29;;;;;;;6.55;5.00;;;4.40;99.90;;;;;;6316335;28;20036;-83
2021/12/08 08:22:30;;;;;;;9.48;7.45;;;4.80;99.90;;;;;;6282984;28;20679;-82
2021/12/08 08:25:34;;;;;;;6.65;5.43;;;4.70;99.90;;;;;;6282857;28;20141;-81
2021/12/08 08:28:35;;;;;;;4.55;3.78;;;;;;;;;;6299674;28;20024;-81
2021/12/08 08:31:42;;;;;;;4.90;3.80;;;5.00;99.90;;;;;;6322100;28;20101;-84
2021/12/08 08:34:45;;;;;;;4.80;4.20;;;4.60;99.90;;;;;;6304730;28;20032;-82
2021/12/08 08:37:47;;;;;;;5.30;4.25;;;4.60;99.90;;;;;;6300699;28;20051;-84
2021/12/08 08:40:51;;;;;;;5.47;3.70;;;4.70;99.90;;;;;;6317063;28;20081;-84
2021/12/08 08:43:53;;;;;;;5.75;4.18;;;4.60;99.90;;;;;;6303722;28;20032;-83
2021/12/08 08:46:55;;;;;;;5.10;3.83;;;4.60;99.90;;;;;;6303431;28;20035;-82
2021/12/08 08:49:55;;;;;;;5.10;4.38;;;4.60;99.90;;;;;;6303331;28;20367;-82
2021/12/08 08:52:56;;;;;;;6.22;4.45;;;;;;;;;;6303352;28;20036;-84
2021/12/08 08:56:00;;;;;;;5.55;4.50;;;4.60;99.90;;;;;;6320655;28;20052;-83
2021/12/08 08:59:05;;;;;;;7.13;4.55;;;4.70;99.90;;;;;;6302804;28;20480;-82
2021/12/08 09:02:08;;;;;;;9.05;8.07;;;4.70;99.90;;;;;;6286491;28;20027;-83
2021/12/08 09:05:12;;;;;;;11.77;8.25;;;4.70;99.90;;;;;;6303965;28;20031;-83
2021/12/08 09:08:14;;;;;;;8.00;5.63;;;4.70;99.90;;;;;;6320109;28;20423;-81
2021/12/08 09:11:18;;;;;;;10.57;6.55;;;4.90;99.90;;;;;;6302849;28;20071;-82
2021/12/08 09:14:29;;;;;;;55.78;29.30;;;4.90;99.90;;;;;;6303524;28;20057;-83
2021/12/08 09:17:38;;;;;;;28.92;16.58;;;4.80;99.90;;;;;;6303820;28;20065;-83
2021/12/08 09:20:43;;;;;;;10.30;7.13;;;5.00;99.90;;;;;;6302363;28;20028;-84
2021/12/08 09:23:45;;;;;;;6.07;4.57;;;;;;;;;;6304587;28;20519;-85
2021/12/08 09:26:49;;;;;;;6.72;4.57;;;4.90;99.90;;;;;;6321109;28;20020;-83
2021/12/08 09:29:59;;;;;;;5.10;4.15;;;4.80;99.90;;;;;;6318878;28;20048;-81
2021/12/08 09:33:06;;;;;;;5.25;3.92;;;5.00;99.90;;;;;;6286266;28;20082;-82
2021/12/08 09:36:10;;;;;;;5.70;4.50;;;5.00;99.90;;;;;;6302558;28;20020;-83
2021/12/08 09:39:24;;;;;;;6.20;4.85;;;5.30;99.90;;;;;;6283771;28;20062;-81
2021/12/08 09:42:40;;;;;;;5.95;4.50;;;4.90;99.90;;;;;;6320446;28;20527;-81
2021/12/08 09:45:51;;;;;;;6.22;4.40;;;5.20;99.90;;;;;;6320281;28;20473;-81
2021/12/08 09:48:52;;;;;;;6.35;4.70;;;5.10;99.90;;;;;;6286561;28;20024;-82
2021/12/08 09:51:53;;;;;;;13.40;8.65;;;;;;;;;;6285148;28;20032;-83
2021/12/08 09:54:55;;;;;;;6.47;4.53;;;5.10;99.90;;;;;;6288885;28;20070;-81
2021/12/08 09:57:56;;;;;;;10.20;9.20;;;;;;;;;;6302322;28;20028;-81
2021/12/08 10:00:59;;;;;;;6.35;5.60;;;5.20;99.90;;;;;;6317278;28;20110;-81
2021/12/08 10:04:00;;;;;;;11.07;6.43;;;;;;;;;;6302409;28;20044;-83
2021/12/08 10:07:03;;;;;;;15.32;8.88;;;;;;;;;;6318570;28;20028;-84
2021/12/08 10:10:04;;;;;;;7.93;4.20;;;5.30;99.90;;;;;;6319011;28;20051;-81
2021/12/08 10:13:05;;;;;;;5.05;3.58;;;5.40;99.90;;;;;;6301388;28;20079;-81
2021/12/08 10:16:07;;;;;;;5.60;4.55;;;;;;;;;;6302060;28;20462;-81
2021/12/08 10:19:07;;;;;;;12.05;8.52;;;5.70;99.90;;;;;;6301441;28;20028;-82
2021/12/08 10:22:21;;;;;;;12.60;9.35;;;5.60;99.90;;;;;;6301193;28;20071;-82
2021/12/08 10:25:23;;;;;;;10.05;6.95;;;5.60;99.90;;;;;;6284447;28;20024;-81
2021/12/08 10:28:38;;;;;;;7.07;6.35;;;5.70;99.90;;;;;;6301381;28;20028;-81
2021/12/08 10:31:42;;;;;;;10.43;8.38;;;5.80;99.90;;;;;;6301638;28;20098;-82
2021/12/08 10:34:53;;;;;;;8.15;7.35;;;;;;;;;;6300469;28;20024;-81
2021/12/08 10:38:00;;;;;;;8.05;5.22;;;5.80;99.90;;;;;;6317233;28;20478;-81
2021/12/08 10:41:03;;;;;;;5.95;4.38;;;6.50;99.90;;;;;;6283616;28;20035;-82
2021/12/08 10:44:04;;;;;;;6.25;5.15;;;6.00;99.90;;;;;;6300537;28;20024;-81
2021/12/08 10:47:04;;;;;;;6.35;4.50;;;8.30;99.90;;;;;;6318737;28;20062;-81
2021/12/08 10:56:40;;;;;;;;;;;6.40;99.90;;;;;;6319085;28;20032;-82
2021/12/08 10:59:55;;;;;;;8.75;4.18;;;6.00;99.90;;;;;;6317122;28;19995;-81
2021/12/08 11:03:04;;;;;;;6.95;4.25;;;6.00;99.90;;;;;;6284076;28;20466;-84
2021/12/08 11:06:05;;;;;;;6.72;4.70;;;7.00;99.90;;;;;;6300479;28;20462;-81
2021/12/08 11:09:13;;;;;;;5.20;4.13;;;6.20;99.90;;;;;;6319220;28;20031;-82
2021/12/08 11:12:14;;;;;;;5.00;4.20;;;6.20;99.90;;;;;;6284607;28;20043;-83
2021/12/08 11:15:22;;;;;;;5.00;3.92;;;6.60;99.90;;;;;;6300411;28;20028;-80
2021/12/08 11:18:23;;;;;;;4.20;3.70;;;6.50;99.90;;;;;;6318011;28;20035;-85
2021/12/08 11:21:30;;;;;;;4.03;3.60;;;5.80;99.90;;;;;;6300500;28;20064;-80
2021/12/08 11:24:44;;;;;;;5.93;3.15;;;6.10;99.90;;;;;;6284288;28;20107;-82
2021/12/08 11:27:45;;;;;;;4.10;3.40;;;5.90;99.90;;;;;;6301410;28;20036;-82
2021/12/08 11:30:46;;;;;;;3.72;3.15;;;6.00;99.90;;;;;;6299140;28;20490;-84
2021/12/08 11:33:53;;;;;;;5.35;3.90;;;6.50;99.90;;;;;;6298998;28;20436;-81
2021/12/08 11:36:59;;;;;;;5.55;4.00;;;6.00;99.90;;;;;;6301187;28;20028;-83
2021/12/08 11:40:01;;;;;;;5.63;4.43;;;5.80;99.90;;;;;;6283684;28;20028;-81
2021/12/08 11:43:02;;;;;;;4.97;3.72;;;5.80;99.90;;;;;;6283775;28;20032;-82
2021/12/08 11:46:16;;;;;;;7.45;4.18;;;5.70;99.90;;;;;;6316259;28;20036;-80
2021/12/08 11:49:16;;;;;;;70.50;32.53;;;5.80;99.90;;;;;;6300029;28;20028;-82
2021/12/08 11:52:20;;;;;;;74.88;33.38;;;5.60;99.90;;;;;;6283675;28;20032;-84
2021/12/08 11:55:21;;;;;;;15.93;10.05;;;5.60;99.90;;;;;;6283000;28;20028;-81
2021/12/08 11:58:24;;;;;;;7.03;5.60;;;5.60;99.90;;;;;;6299933;28;20432;-81
2021/12/08 12:01:25;;;;;;;6.60;5.53;;;5.60;99.90;;;;;;6300310;28;20024;-82
2021/12/08 12:04:25;;;;;;;6.93;5.38;;;5.50;99.90;;;;;;6286697;28;20035;-82
2021/12/08 12:07:26;;;;;;;7.72;5.05;;;5.80;99.90;;;;;;6304393;28;20096;-83
2021/12/08 12:10:29;;;;;;;8.30;5.10;;;5.60;99.90;;;;;;6306494;28;20066;-84
2021/12/08 12:13:30;;;;;;;8.95;7.10;;;5.60;99.90;;;;;;6304034;28;20028;-80
2021/12/08 12:16:31;;;;;;;5.63;4.63;;;;;;;;;;6288111;28;20500;-81
2021/12/08 12:19:50;;;;;;;9.02;4.32;;;5.90;99.90;;;;;;6311737;28;20027;-84
2021/12/08 12:23:28;;;;;;;4.35;3.95;;;6.00;99.90;;;;;;6306709;28;20447;-82
2021/12/08 12:26:53;;;;;;;6.85;3.70;;;5.60;99.90;;;;;;6322031;28;20046;-84
2021/12/08 12:30:21;;;;;;;7.90;4.97;;;5.50;99.90;;;;;;6319493;28;20048;-84
2021/12/08 12:33:22;;;;;;;14.20;7.47;;;5.80;99.90;;;;;;6300087;28;20040;-82
2021/12/08 12:36:33;;;;;;;7.60;4.97;;;5.70;99.90;;;;;;6303206;28;20079;-82
2021/12/08 12:39:34;;;;;;;4.70;3.97;;;;;;;;;;6302677;28;20047;-82
2021/12/08 12:42:57;;;;;;;8.05;4.20;;;6.20;99.90;;;;;;6320234;28;20466;-81
2021/12/08 12:46:02;;;;;;;;;;;5.80;99.90;;;;;;6287934;28;20062;-84
2021/12/08 12:49:20;;;;;;;5.22;4.30;;;5.80;99.90;;;;;;6303353;28;20418;-83
2021/12/08 12:52:21;;;;;;;5.32;3.65;;;;;;;;;;6286645;28;20047;-81
2021/12/08 12:55:29;;;;;;;5.25;4.18;;;5.80;99.90;;;;;;6319397;28;20039;-83
2021/12/08 12:58:50;;;;;;;5.57;3.92;;;6.00;99.90;;;;;;6320396;28;20043;-82
2021/12/08 13:02:20;;;;;;;5.55;4.00;;;5.80;99.90;;;;;;6320027;28;20492;-80
2021/12/08 13:05:21;;;;;;;9.13;6.10;;;;;;;;;;6298158;28;20100;-82
2021/12/08 13:08:51;;;;;;;8.02;6.50;;;5.90;99.90;;;;;;6319747;28;20462;-81
2021/12/08 13:11:59;;;;;;;6.43;4.55;;;;;;;;;;6242164;28;20160;-80
2021/12/08 13:15:21;;;;;;;7.97;5.20;;;5.80;99.90;;;;;;6245267;28;20099;-81
2021/12/08 13:18:25;;;;;;;4.63;3.70;;;;;;;;;;6246838;28;20026;-86
2021/12/08 13:21:41;;;;;;;5.22;4.00;;;5.70;99.90;;;;;;6262767;28;20135;-83
2021/12/08 13:24:43;;;;;;;7.78;4.00;;;;;;;;;;6243243;28;20029;-86
2021/12/08 13:27:48;;;;;;;7.47;4.73;;;5.90;99.90;;;;;;6264361;28;20087;-83
2021/12/08 13:30:53;;;;;;;9.40;4.97;;;5.80;99.90;;;;;;6249608;28;20813;-81
2021/12/08 13:33:57;;;;;;;10.95;6.68;;;5.50;99.90;;;;;;6243552;28;20063;-81
2021/12/08 13:37:11;;;;;;;10.68;5.80;;;5.80;99.90;;;;;;6246141;28;20041;-83
2021/12/08 13:40:15;;;;;;;6.38;3.00;;;5.50;99.90;;;;;;6260847;28;20543;-80
2021/12/08 13:43:41;;;;;;;6.85;2.78;;;5.70;99.90;;;;;;6266238;28;20627;-81
2021/12/08 13:46:44;;;;;;;7.35;2.65;;;5.50;99.90;;;;;;6249153;28;20025;-85
2021/12/08 13:49:53;;;;;;;6.60;3.08;;;5.50;99.90;;;;;;6302206;28;20034;-81
2021/12/08 13:53:05;;;;;;;5.63;3.10;;;5.60;99.90;;;;;;6286464;28;20039;-82
2021/12/08 13:56:06;;;;;;;;;;;5.50;99.90;;;;;;6302676;28;20612;-81
2021/12/08 13:59:07;;;;;;;7.53;3.58;;;;;;;;;;6318947;28;19994;-85
2021/12/08 14:02:27;;;;;;;5.57;3.40;;;5.30;99.90;;;;;;6318166;28;20352;-83
2021/12/08 14:05:30;;;;;;;10.18;4.85;;;5.50;99.90;;;;;;6318549;28;20036;-84
2021/12/08 14:08:38;;;;;;;;;;;5.50;99.90;;;;;;6301067;28;20484;-81
2021/12/08 14:11:39;;;;;;;14.05;7.07;;;5.50;99.90;;;;;;6318371;28;19946;-85
2021/12/08 14:14:39;;;;;;;9.52;4.43;;;5.30;99.90;;;;;;6284441;28;20180;-83
2021/12/08 14:17:40;;;;;;;9.20;3.55;;;5.30;99.90;;;;;;6285083;28;20032;-83
2021/12/08 14:20:41;;;;;;;8.70;3.33;;;;;;;;;;6301431;28;20413;-82
2021/12/08 14:23:45;;;;;;;6.35;3.25;;;5.20;99.90;;;;;;6301165;28;20059;-83
2021/12/08 14:26:49;;;;;;;5.25;3.58;;;6.20;99.90;;;;;;6282654;28;20032;-84
2021/12/08 14:29:49;;;;;;;5.68;3.70;;;5.20;99.90;;;;;;6284773;28;20052;-84
2021/12/08 14:33:03;;;;;;;9.77;4.25;;;4.90;99.90;;;;;;6300827;28;20036;-82
2021/12/08 14:36:05;;;;;;;10.10;5.70;;;5.10;99.90;;;;;;6300863;28;20031;-83
2021/12/08 14:39:17;;;;;;;;;;;5.10;99.90;;;;;;6284919;28;20115;-84
2021/12/08 14:42:29;;;;;;;7.47;4.45;;;4.90;99.90;;;;;;6317480;28;19919;-85
2021/12/08 14:45:32;;;;;;;6.03;4.18;;;;;;;;;;6301390;28;20027;-84
2021/12/08 14:48:33;;;;;;;8.02;4.43;;;;;;;;;;6301007;28;20021;-85
2021/12/08 14:51:35;;;;;;;9.45;4.65;;;;;;;;;;6317532;28;20107;-85
2021/12/08 14:54:47;;;;;;;8.45;4.57;;;4.90;99.90;;;;;;6300629;28;20042;-84
2021/12/08 14:57:52;;;;;;;7.45;3.90;;;4.90;99.90;;;;;;6300769;28;20550;-85
2021/12/08 15:00:52;;;;;;;8.65;3.90;;;4.90;99.90;;;;;;6284548;28;20036;-83
2021/12/08 15:03:53;;;;;;;7.90;4.00;;;;;;;;;;6284271;28;20059;-83
2021/12/08 15:06:59;;;;;;;4.97;3.13;;;4.90;99.90;;;;;;6318822;28;20498;-84
2021/12/08 15:10:02;;;;;;;6.30;3.30;;;;;;;;;;6301114;28;20040;-83
2021/12/08 15:13:07;;;;;;;8.75;3.35;;;4.90;99.90;;;;;;6316047;28;20065;-82
2021/12/08 15:16:12;;;;;;;12.35;3.45;;;4.90;99.90;;;;;;6314264;28;20031;-81
2021/12/08 15:19:13;;;;;;;5.13;3.05;;;4.70;99.90;;;;;;6280244;28;20028;-84
2021/12/08 15:22:15;;;;;;;10.70;6.20;;;4.80;99.90;;;;;;6297918;28;20455;-84
2021/12/08 15:25:25;;;;;;;5.32;3.65;;;4.70;99.90;;;;;;6280653;28;20458;-83
2021/12/08 15:28:33;;;;;;;4.68;3.22;;;4.60;99.90;;;;;;6283484;28;20108;-83
2021/12/08 15:31:37;;;;;;;6.80;3.75;;;5.40;99.90;;;;;;6282186;28;20056;-85
2021/12/08 15:34:38;;;;;;;14.73;8.25;;;4.60;99.90;;;;;;6284084;28;20028;-86
2021/12/08 15:37:55;;;;;;;13.57;7.75;;;4.70;99.90;;;;;;6282385;28;20505;-84
2021/12/08 15:40:56;;;;;;;7.60;4.47;;;5.40;99.90;;;;;;6283172;28;20039;-83
2021/12/08 15:44:13;;;;;;;11.88;8.27;;;4.90;99.90;;;;;;6282664;28;20421;-82
2021/12/08 15:47:14;;;;;;;7.03;4.55;;;4.40;99.90;;;;;;6288289;28;20039;-85
2021/12/08 15:50:26;;;;;;;4.72;4.05;;;4.50;99.90;;;;;;6283292;28;20060;-85
2021/12/08 15:53:27;;;;;;;5.07;3.65;;;4.50;99.90;;;;;;6316726;28;20093;-84
2021/12/08 15:56:31;;;;;;;7.72;4.60;;;4.60;99.90;;;;;;6282938;28;20044;-85
2021/12/08 15:59:33;;;;;;;8.43;4.47;;;4.50;99.90;;;;;;6284222;28;20370;-87
2021/12/08 16:02:34;;;;;;;19.83;10.80;;;;;;;;;;6283803;28;20028;-82
2021/12/08 16:05:38;;;;;;;26.33;10.80;;;;;;;;;;6316134;28;20028;-86
2021/12/08 16:08:39;;;;;;;21.90;9.90;;;4.30;99.90;;;;;;6317133;28;20375;-86
2021/12/08 16:11:39;;;;;;;12.27;8.40;;;4.40;99.90;;;;;;6299744;28;20129;-85
2021/12/08 16:14:57;;;;;;;7.85;4.60;;;4.40;99.90;;;;;;6299070;28;20374;-84
2021/12/08 16:22:00;;;;;;;10.25;4.72;;;;;;;;;;6238491;28;20045;-82
2021/12/08 16:25:01;;;;;;;8.38;4.85;;;4.20;99.90;;;;;;6221879;28;20474;-82
2021/12/08 16:28:06;;;;;;;6.95;4.70;;;4.50;99.90;;;;;;6222188;28;20032;-84
2021/12/08 16:31:07;;;;;;;8.50;4.50;;;4.40;99.90;;;;;;6238272;28;20053;-82
2021/12/08 16:34:07;;;;;;;5.88;4.15;;;4.30;99.90;;;;;;6238927;28;20072;-84
2021/12/08 16:45:22;;;;;;;11.02;6.32;;;4.30;99.90;;;;;;6158475;28;20035;-87
2021/12/08 16:48:29;;;;;;;;;;;4.30;99.90;;;;;;6161778;28;20567;-84
2021/12/08 16:55:27;;;;;;;;;;;;;;;;;;;;;
2021/12/08 16:58:52;;;;;;;9.07;6.45;;;4.30;99.90;;;;;;6180886;28;20241;-82
2021/12/08 17:01:53;;;;;;;17.23;10.52;;;4.10;99.90;;;;;;6160006;28;20554;-83
2021/12/08 17:04:54;;;;;;;11.75;7.70;;;4.60;99.90;;;;;;6177949;28;20034;-85
2021/12/08 17:07:55;;;;;;;7.80;5.22;;;4.60;99.90;;;;;;6178115;28;20034;-83
2021/12/08 17:10:56;;;;;;;8.63;4.82;;;;;;;;;;6211372;28;20060;-84
2021/12/08 17:13:57;;;;;;;14.52;6.25;;;4.20;99.90;;;;;;6250255;28;20514;-83
2021/12/08 17:16:57;;;;;;;9.13;5.78;;;4.70;99.90;;;;;;6250076;28;20154;-84
2021/12/08 17:19:58;;;;;;;10.20;5.78;;;4.30;99.90;;;;;;6234887;28;20052;-82
2021/12/08 17:22:59;;;;;;;8.68;5.30;;;4.10;99.90;;;;;;6239996;28;20029;-83
2021/12/08 17:26:00;;;;;;;8.85;5.38;;;;;;;;;;6251609;28;20071;-85
2021/12/08 17:29:00;;;;;;;12.18;7.70;;;4.20;99.90;;;;;;6251976;28;20386;-87
2021/12/08 17:32:02;;;;;;;13.60;7.88;;;4.00;99.90;;;;;;6236127;28;20045;-87
2021/12/08 17:35:03;;;;;;;9.40;5.10;;;4.30;99.90;;;;;;6252171;28;20055;-86
2021/12/08 17:38:05;;;;;;;7.60;5.35;;;;;;;;;;6254131;28;20134;-85
2021/12/08 17:41:07;;;;;;;19.70;12.00;;;4.20;99.90;;;;;;6300963;28;20035;-87
2021/12/08 17:44:08;;;;;;;44.22;23.45;;;4.80;99.90;;;;;;6286528;28;20035;-87